createdAt,value
2022-09-07T00:00:48.773Z,9.53
2022-09-07T00:03:16.342Z,9.52
2022-09-07T00:05:45.021Z,9.34
2022-09-07T00:08:12.700Z,9.47
2022-09-07T00:10:40.649Z,9.45
2022-09-07T00:13:08.834Z,9.29
2022-09-07T00:15:40.353Z,9.40
2022-09-07T00:18:07.717Z,9.37
2022-09-07T00:20:34.996Z,9.37
2022-09-07T00:23:01.931Z,9.35
2022-09-07T00:25:31.894Z,9.34
2022-09-07T00:27:59.464Z,9.32
2022-09-07T00:30:26.561Z,9.30
2022-09-07T00:32:53.632Z,9.27
2022-09-07T00:35:20.724Z,9.27
2022-09-07T00:37:47.645Z,9.24
2022-09-07T00:40:14.809Z,9.17
2022-09-07T00:42:41.874Z,9.16
2022-09-07T00:45:20.006Z,9.19
2022-09-07T00:47:55.636Z,9.17
2022-09-07T00:50:32.167Z,9.14
2022-09-07T00:53:21.356Z,9.13
2022-09-07T00:55:51.178Z,9.14
2022-09-07T00:58:21.063Z,9.13
2022-09-07T01:00:49.384Z,9.13
2022-09-07T01:03:20.142Z,9.09
2022-09-07T01:05:53.904Z,9.13
2022-09-07T01:08:21.732Z,9.12
2022-09-07T01:10:48.919Z,9.12
2022-09-07T01:13:16.157Z,9.13
2022-09-07T01:15:48.908Z,9.13
2022-09-07T01:18:28.046Z,9.14
2022-09-07T01:21:12.821Z,9.14
2022-09-07T01:23:49.026Z,9.14
2022-09-07T01:26:34.029Z,9.14
2022-09-07T01:29:22.379Z,9.15
2022-09-07T01:32:14.762Z,9.15
2022-09-07T01:34:46.434Z,9.15
2022-09-07T01:38:04.537Z,9.15
2022-09-07T01:40:50.929Z,9.16
2022-09-07T01:43:46.790Z,9.12
2022-09-07T01:46:37.067Z,9.16
2022-09-07T01:49:12.098Z,9.14
2022-09-07T01:51:43.489Z,9.17
2022-09-07T01:54:33.475Z,9.17
2022-09-07T01:57:10.363Z,9.16
2022-09-07T01:59:57.378Z,9.17
2022-09-07T02:02:44.257Z,9.18
2022-09-07T02:05:28.189Z,9.17
2022-09-07T02:08:06.742Z,9.07
2022-09-07T02:10:40.680Z,9.17
2022-09-07T02:13:19.290Z,9.18
2022-09-07T02:16:03.542Z,9.19
2022-09-07T02:18:57.244Z,9.20
2022-09-07T02:22:07.104Z,9.20
2022-09-07T02:24:59.804Z,9.17
2022-09-07T02:27:54.277Z,9.21
2022-09-07T02:30:41.312Z,9.23
2022-09-07T02:33:28.583Z,9.23
2022-09-07T02:36:15.729Z,9.22
2022-09-07T02:39:02.816Z,9.26
2022-09-07T02:41:55.680Z,9.26
2022-09-07T02:44:47.721Z,9.28
2022-09-07T02:47:42.140Z,9.28
2022-09-07T02:51:04.831Z,9.31
2022-09-07T02:54:11.212Z,9.31
2022-09-07T02:57:28.052Z,9.32
2022-09-07T03:00:32.018Z,9.34
2022-09-07T03:03:49.276Z,9.33
2022-09-07T03:06:46.441Z,9.35
2022-09-07T03:09:39.186Z,9.35
2022-09-07T03:12:26.910Z,9.38
2022-09-07T03:15:13.887Z,9.39
2022-09-07T03:18:02.391Z,9.40
2022-09-07T03:20:49.408Z,9.42
2022-09-07T03:23:36.436Z,9.35
2022-09-07T03:26:24.225Z,9.44
2022-09-07T03:29:12.041Z,9.46
2022-09-07T03:31:59.184Z,9.47
2022-09-07T03:34:46.240Z,9.37
2022-09-07T03:37:33.210Z,9.37
2022-09-07T03:40:20.140Z,9.52
2022-09-07T03:43:10.340Z,9.54
2022-09-07T03:45:57.436Z,9.55
2022-09-07T03:48:44.621Z,9.57
2022-09-07T03:51:33.321Z,9.57
2022-09-07T03:54:20.344Z,9.60
2022-09-07T03:57:07.463Z,9.60
2022-09-07T03:59:54.963Z,9.63
2022-09-07T04:02:41.965Z,9.64
2022-09-07T04:05:29.445Z,9.66
2022-09-07T04:08:16.424Z,9.68
2022-09-07T04:11:03.805Z,9.70
2022-09-07T04:13:51.849Z,9.70
2022-09-07T04:16:44.403Z,9.73
2022-09-07T04:19:31.624Z,9.75
2022-09-07T04:22:18.512Z,9.49
2022-09-07T04:25:05.516Z,9.80
2022-09-07T04:27:52.381Z,9.82
2022-09-07T04:30:39.449Z,9.80
2022-09-07T04:33:26.592Z,9.90
2022-09-07T04:36:13.618Z,9.94
2022-09-07T04:39:01.297Z,9.97
2022-09-07T04:41:49.705Z,10.01
2022-09-07T04:44:36.749Z,10.04
2022-09-07T04:47:23.694Z,10.06
2022-09-07T04:50:11.894Z,10.00
2022-09-07T04:52:58.835Z,10.13
2022-09-07T04:55:45.917Z,10.17
2022-09-07T04:58:33.259Z,10.18
2022-09-07T05:01:24.966Z,10.19
2022-09-07T05:03:52.499Z,10.25
2022-09-07T05:06:20.796Z,10.26
2022-09-07T05:08:50.866Z,10.28
2022-09-07T05:11:19.588Z,10.30
2022-09-07T05:13:46.649Z,10.33
2022-09-07T05:16:20.341Z,10.35
2022-09-07T05:19:15.477Z,10.38
2022-09-07T05:22:02.746Z,10.27
2022-09-07T05:24:49.930Z,10.32
2022-09-07T05:27:37.068Z,10.45
2022-09-07T05:36:38.365Z,10.53
2022-09-07T05:39:27.003Z,10.57
2022-09-07T05:42:14.115Z,10.59
2022-09-07T05:45:01.303Z,10.32
2022-09-07T05:47:48.219Z,10.60
2022-09-07T05:50:35.277Z,10.66
2022-09-07T05:53:22.829Z,10.51
2022-09-07T05:56:12.452Z,10.65
2022-09-07T05:58:59.681Z,10.76
2022-09-07T06:01:46.841Z,10.79
2022-09-07T06:04:33.795Z,10.82
2022-09-07T06:07:22.497Z,10.86
2022-09-07T06:13:18.084Z,10.93
2022-09-07T06:16:05.184Z,10.81
2022-09-07T06:18:54.749Z,11.01
2022-09-07T06:21:43.428Z,11.05
2022-09-07T06:24:30.714Z,11.06
2022-09-07T06:27:17.638Z,11.08
2022-09-07T06:30:04.597Z,11.16
2022-09-07T06:32:51.554Z,11.23
2022-09-07T06:35:38.702Z,11.25
2022-09-07T06:38:31.248Z,11.29
2022-09-07T06:44:40.384Z,11.16
2022-09-07T06:47:27.491Z,11.42
2022-09-07T06:50:14.413Z,11.44
2022-09-07T06:56:08.425Z,11.53
2022-09-07T06:58:56.099Z,11.55
2022-09-07T07:01:44.913Z,11.46
2022-09-07T07:04:33.241Z,11.59
2022-09-07T07:07:23.479Z,11.60
2022-09-07T07:10:10.641Z,11.63
2022-09-07T07:12:58.355Z,11.67
2022-09-07T07:15:47.366Z,11.70
2022-09-07T07:18:34.681Z,11.73
2022-09-07T07:22:10.823Z,11.78
2022-09-07T07:24:55.270Z,11.84
2022-09-07T07:27:42.264Z,11.87
2022-09-07T07:30:29.663Z,11.90
2022-09-07T07:33:16.829Z,11.92
2022-09-07T07:36:03.929Z,11.97
2022-09-07T07:44:39.369Z,12.06
2022-09-07T07:47:26.360Z,12.08
2022-09-07T07:56:29.915Z,12.11
2022-09-07T07:59:16.801Z,12.34
2022-09-07T08:02:03.951Z,12.44
2022-09-07T08:04:52.828Z,12.53
2022-09-07T08:07:40.239Z,12.60
2022-09-07T08:10:27.441Z,12.44
2022-09-07T08:13:14.416Z,12.66
2022-09-07T08:16:01.922Z,12.72
2022-09-07T08:18:49.375Z,12.75
2022-09-07T08:21:36.846Z,12.77
2022-09-07T08:24:24.024Z,12.78
2022-09-07T08:27:11.721Z,12.83
2022-09-07T08:29:58.777Z,12.88
2022-09-07T08:32:46.746Z,12.85
2022-09-07T08:35:33.942Z,12.96
2022-09-07T08:38:21.174Z,12.99
2022-09-07T08:40:49.308Z,13.03
2022-09-07T08:43:57.060Z,13.04
2022-09-07T08:46:54.839Z,13.04
2022-09-07T08:49:42.009Z,13.05
2022-09-07T08:52:44.149Z,13.05
2022-09-07T08:55:29.357Z,13.04
2022-09-07T08:58:45.264Z,13.05
2022-09-07T09:01:31.915Z,13.07
2022-09-07T09:04:16.008Z,13.07
2022-09-07T09:06:58.773Z,13.07
2022-09-07T09:09:55.266Z,13.10
2022-09-07T09:12:25.153Z,13.12
2022-09-07T09:15:13.775Z,13.14
2022-09-07T09:17:59.673Z,13.11
2022-09-07T09:20:44.446Z,13.04
2022-09-07T09:23:17.400Z,12.97
2022-09-07T09:26:00.158Z,12.92
2022-09-07T09:28:30.259Z,12.88
2022-09-07T09:30:59.533Z,12.83
2022-09-07T09:33:29.115Z,12.81
2022-09-07T09:36:02.451Z,12.59
2022-09-07T09:38:34.486Z,12.80
2022-09-07T09:41:33.197Z,12.74
2022-09-07T09:44:20.146Z,12.85
2022-09-07T09:53:35.353Z,12.89
2022-09-07T09:56:04.874Z,12.89
2022-09-07T10:01:36.079Z,12.90
2022-09-07T10:04:22.645Z,12.89
2022-09-07T10:06:58.033Z,12.91
2022-09-07T10:09:30.172Z,12.65
2022-09-07T10:12:08.545Z,12.98
2022-09-07T10:14:47.392Z,13.04
2022-09-07T10:17:29.071Z,13.08
2022-09-07T10:20:22.950Z,13.13
2022-09-07T10:22:52.972Z,13.16
2022-09-07T10:25:53.542Z,13.15
2022-09-07T10:31:52.253Z,13.21
2022-09-07T10:34:49.173Z,13.25
2022-09-07T10:37:45.300Z,13.31
2022-09-07T10:40:55.089Z,13.36
2022-09-07T10:43:56.040Z,13.39
2022-09-07T10:46:57.008Z,13.36
2022-09-07T10:53:38.947Z,13.23
2022-09-07T10:56:19.439Z,13.18
2022-09-07T10:59:12.031Z,13.11
2022-09-07T11:02:30.918Z,13.06
2022-09-07T11:05:48.171Z,13.02
2022-09-07T11:12:07.069Z,13.04
2022-09-07T11:15:11.626Z,13.12
2022-09-07T11:18:17.067Z,13.16
2022-09-07T11:21:10.920Z,13.18
2022-09-07T11:24:22.181Z,13.19
2022-09-07T11:27:13.661Z,13.20
2022-09-07T11:30:16.614Z,13.22
2022-09-07T11:33:13.157Z,13.24
2022-09-07T11:36:16.911Z,13.24
2022-09-07T11:39:20.298Z,13.26
2022-09-07T11:42:44.460Z,13.28
2022-09-07T11:45:48.019Z,13.30
2022-09-07T11:49:15.106Z,13.30
2022-09-07T11:52:07.609Z,13.26
2022-09-07T11:54:54.888Z,13.33
2022-09-07T11:57:33.928Z,13.35
2022-09-07T12:00:19.349Z,13.37
2022-09-07T12:03:27.727Z,13.37
2022-09-07T12:06:00.617Z,13.41
2022-09-07T12:08:51.530Z,13.49
2022-09-07T12:11:31.122Z,13.62
2022-09-07T12:14:26.976Z,13.80
2022-09-07T12:16:59.925Z,13.95
2022-09-07T12:19:28.353Z,14.12
2022-09-07T12:21:56.666Z,14.31
2022-09-07T12:24:32.625Z,14.46
2022-09-07T12:27:00.701Z,14.58
2022-09-07T12:29:28.960Z,14.71
2022-09-07T12:32:07.309Z,14.86
2022-09-07T12:35:14.393Z,15.06
2022-09-07T12:38:02.372Z,15.20
2022-09-07T12:40:49.244Z,15.38
2022-09-07T12:43:16.372Z,15.52
2022-09-07T12:45:50.581Z,15.66
2022-09-07T12:48:17.721Z,15.78
2022-09-07T12:50:53.361Z,15.86
2022-09-07T12:53:37.555Z,15.96
2022-09-07T12:56:29.524Z,16.04
2022-09-07T12:59:17.340Z,16.10
2022-09-07T13:02:44.007Z,16.13
2022-09-07T13:05:31.098Z,16.16
2022-09-07T13:09:07.046Z,16.19
2022-09-07T13:11:57.142Z,16.23
2022-09-07T13:14:49.262Z,16.24
2022-09-07T13:18:02.055Z,16.19
2022-09-07T13:20:50.185Z,16.13
2022-09-07T13:23:45.759Z,16.04
2022-09-07T13:27:11.117Z,15.89
2022-09-07T13:30:01.210Z,15.77
2022-09-07T13:35:44.773Z,15.56
2022-09-07T13:38:15.458Z,15.37
2022-09-07T13:40:46.869Z,15.44
2022-09-07T13:43:21.914Z,15.39
2022-09-07T13:45:54.927Z,15.29
2022-09-07T13:48:51.985Z,15.17
2022-09-07T13:51:34.180Z,14.94
2022-09-07T13:54:38.209Z,14.93
2022-09-07T13:57:24.429Z,14.82
2022-09-07T13:59:52.417Z,14.81
2022-09-07T14:02:44.080Z,14.75
2022-09-07T14:05:36.991Z,14.63
2022-09-07T14:08:23.923Z,14.53
2022-09-07T14:11:10.800Z,14.48
2022-09-07T14:13:57.741Z,14.43
2022-09-07T14:16:44.896Z,14.37
2022-09-07T14:19:56.016Z,14.29
2022-09-07T14:22:53.214Z,14.22
2022-09-07T14:25:22.901Z,14.14
2022-09-07T14:27:50.070Z,14.07
2022-09-07T14:30:46.076Z,14.00
2022-09-07T14:33:35.446Z,13.92
2022-09-07T14:36:43.508Z,13.87
2022-09-07T14:39:32.634Z,13.81
2022-09-07T14:42:23.096Z,13.76
2022-09-07T14:45:10.520Z,13.64
2022-09-07T14:47:58.437Z,13.67
2022-09-07T14:51:19.482Z,13.62
2022-09-07T14:54:15.719Z,13.55
2022-09-07T14:57:02.759Z,13.50
2022-09-07T14:59:58.090Z,13.45
2022-09-07T15:02:52.630Z,13.41
2022-09-07T15:05:47.769Z,13.38
2022-09-07T15:08:59.688Z,13.35
2022-09-07T15:11:49.194Z,13.31
2022-09-07T15:14:40.490Z,13.27
2022-09-07T15:17:50.818Z,13.27
2022-09-07T15:20:59.061Z,13.26
2022-09-07T15:23:26.026Z,13.03
2022-09-07T15:25:54.097Z,13.22
2022-09-07T15:34:16.010Z,13.16
2022-09-07T15:36:48.731Z,13.14
2022-09-07T15:39:28.118Z,13.12
2022-09-07T15:41:55.507Z,13.11
2022-09-07T15:44:26.093Z,13.06
2022-09-07T15:49:49.173Z,12.86
2022-09-07T15:52:18.031Z,12.86
2022-09-07T15:54:45.047Z,12.85
2022-09-07T15:59:59.120Z,12.71
2022-09-07T16:05:13.857Z,12.51
2022-09-07T16:10:31.058Z,12.67
2022-09-07T16:13:03.115Z,12.64
2022-09-07T16:15:31.877Z,12.61
2022-09-07T16:17:58.757Z,12.55
2022-09-07T16:20:25.728Z,12.53
2022-09-07T16:25:43.426Z,12.43
2022-09-07T16:28:10.924Z,12.37
2022-09-07T16:30:41.131Z,12.36
2022-09-07T16:33:08.400Z,12.34
2022-09-07T16:35:35.448Z,12.30
2022-09-07T16:40:51.061Z,12.23
2022-09-07T16:43:18.151Z,12.14
2022-09-07T16:48:34.610Z,12.12
2022-09-07T16:51:05.410Z,12.08
2022-09-07T16:53:35.640Z,11.74
2022-09-07T16:56:04.275Z,11.99
2022-09-07T16:58:37.457Z,11.96
2022-09-07T17:01:25.711Z,11.96
2022-09-07T17:04:13.434Z,11.69
2022-09-07T17:07:00.786Z,11.87
2022-09-07T17:09:28.761Z,11.82
2022-09-07T17:11:55.651Z,11.69
2022-09-07T17:14:22.648Z,11.75
2022-09-07T17:16:49.803Z,11.73
2022-09-07T17:19:32.615Z,11.69
2022-09-07T17:22:19.757Z,11.65
2022-09-07T17:25:06.725Z,11.60
2022-09-07T17:27:33.757Z,11.55
2022-09-07T17:30:00.668Z,11.52
2022-09-07T17:32:30.043Z,11.46
2022-09-07T17:34:57.297Z,11.41
2022-09-07T17:37:24.226Z,11.37
2022-09-07T17:39:51.841Z,11.31
2022-09-07T17:42:19.160Z,11.26
2022-09-07T17:44:46.000Z,11.20
2022-09-07T17:47:13.272Z,11.09
2022-09-07T17:49:40.196Z,11.10
2022-09-07T17:52:07.269Z,11.05
2022-09-07T17:54:34.189Z,10.99
2022-09-07T17:57:01.041Z,10.94
2022-09-07T18:02:15.056Z,10.80
2022-09-07T18:04:42.715Z,10.74
2022-09-07T18:07:09.736Z,10.68
2022-09-07T18:09:37.003Z,10.46
2022-09-07T18:12:04.191Z,10.54
2022-09-07T18:14:31.358Z,10.48
2022-09-07T18:16:58.235Z,10.41
2022-09-07T18:19:25.900Z,10.35
2022-09-07T18:21:53.093Z,10.30
2022-09-07T18:24:23.552Z,10.24
2022-09-07T18:26:52.788Z,10.19
2022-09-07T18:29:29.858Z,10.13
2022-09-07T18:31:58.613Z,10.09
2022-09-07T18:34:26.148Z,10.02
2022-09-07T18:36:53.821Z,9.99
2022-09-07T18:39:21.998Z,9.94
2022-09-07T18:41:49.237Z,9.87
2022-09-07T18:47:03.577Z,9.76
2022-09-07T18:49:30.545Z,9.71
2022-09-07T18:54:44.414Z,9.55
2022-09-07T18:57:11.305Z,9.51
2022-09-07T18:59:38.202Z,9.47
2022-09-07T19:02:08.122Z,9.36
2022-09-07T19:07:28.825Z,9.28
2022-09-07T19:09:56.955Z,9.25
2022-09-07T19:12:24.376Z,9.21
2022-09-07T19:14:51.686Z,9.17
2022-09-07T19:17:19.564Z,9.13
2022-09-07T19:19:46.783Z,9.09
2022-09-07T19:22:13.793Z,9.06
2022-09-07T19:24:40.703Z,8.99
2022-09-07T19:27:27.647Z,8.95
2022-09-07T19:29:56.156Z,8.89
2022-09-07T19:32:23.101Z,8.84
2022-09-07T19:34:54.572Z,8.79
2022-09-07T19:37:25.761Z,8.73
2022-09-07T19:39:56.102Z,8.67
2022-09-07T19:42:24.009Z,8.63
2022-09-07T19:44:51.377Z,8.21
2022-09-07T19:47:18.759Z,8.51
2022-09-07T19:49:45.776Z,8.43
2022-09-07T19:52:12.644Z,8.36
2022-09-07T19:54:40.684Z,8.29
2022-09-07T19:57:27.587Z,8.17
2022-09-07T20:00:14.856Z,8.18
2022-09-07T20:03:01.721Z,8.13
2022-09-07T20:05:48.788Z,8.08
2022-09-07T20:08:35.600Z,8.04
2022-09-07T20:11:24.545Z,7.98
2022-09-07T20:14:11.491Z,7.92
2022-09-07T20:16:58.633Z,7.87
2022-09-07T20:19:45.576Z,7.78
2022-09-07T20:22:32.726Z,7.80
2022-09-07T20:25:21.088Z,7.74
2022-09-07T20:28:08.422Z,7.69
2022-09-07T20:30:55.276Z,7.64
2022-09-07T20:33:43.111Z,7.59
2022-09-07T20:36:33.348Z,7.34
2022-09-07T20:39:20.647Z,7.50
2022-09-07T20:42:07.782Z,7.17
2022-09-07T20:44:55.010Z,7.39
2022-09-07T20:47:41.839Z,7.32
2022-09-07T20:50:29.380Z,7.28
2022-09-07T20:53:16.203Z,7.23
2022-09-07T20:55:43.247Z,7.17
2022-09-07T20:58:10.141Z,7.14
2022-09-07T21:00:37.505Z,6.97
2022-09-07T21:03:04.608Z,7.00
2022-09-07T21:05:35.433Z,7.00
2022-09-07T21:08:02.637Z,6.96
2022-09-07T21:10:29.635Z,6.91
2022-09-07T21:12:56.507Z,6.85
2022-09-07T21:15:23.516Z,6.80
2022-09-07T21:17:50.450Z,6.76
2022-09-07T21:20:17.297Z,6.72
2022-09-07T21:22:44.150Z,6.68
2022-09-07T21:25:11.188Z,6.63
2022-09-07T21:27:38.834Z,6.59
2022-09-07T21:30:06.592Z,6.50
2022-09-07T21:32:33.571Z,6.51
2022-09-07T21:35:00.526Z,6.45
2022-09-07T21:37:27.446Z,6.45
2022-09-07T21:39:55.082Z,6.19
2022-09-07T21:42:42.005Z,6.33
2022-09-07T21:45:29.181Z,6.19
2022-09-07T21:48:15.978Z,6.12
2022-09-07T21:51:03.038Z,6.08
2022-09-07T21:53:50.020Z,6.08
2022-09-07T21:56:37.005Z,6.03
2022-09-07T21:59:23.824Z,5.92
2022-09-07T22:02:10.984Z,5.92
2022-09-07T22:04:57.898Z,5.89
2022-09-07T22:07:44.995Z,5.85
2022-09-07T22:10:31.910Z,5.80
2022-09-07T22:13:18.860Z,5.79
2022-09-07T22:16:07.984Z,5.48
2022-09-07T22:18:56.142Z,5.67
2022-09-07T22:21:45.284Z,5.58
2022-09-07T22:24:32.724Z,5.64
2022-09-07T22:27:19.584Z,5.62
2022-09-07T22:30:06.637Z,5.60
2022-09-07T22:32:53.739Z,5.56
2022-09-07T22:35:41.285Z,5.52
2022-09-07T22:38:28.085Z,5.48
2022-09-07T22:41:15.148Z,5.42
2022-09-07T22:44:03.136Z,5.39
2022-09-07T22:46:54.382Z,5.35
2022-09-07T22:49:41.294Z,5.16
2022-09-07T22:52:28.517Z,5.25
2022-09-07T22:55:15.353Z,5.21
2022-09-07T22:58:02.457Z,5.14
2022-09-07T23:00:49.314Z,5.12
2022-09-07T23:03:37.964Z,5.00
2022-09-07T23:06:25.065Z,5.04
2022-09-07T23:09:13.695Z,5.04
2022-09-07T23:12:00.873Z,4.99
2022-09-07T23:14:47.766Z,4.97
2022-09-07T23:17:34.563Z,4.93
2022-09-07T23:20:21.705Z,4.91
2022-09-07T23:23:08.498Z,4.89
2022-09-07T23:26:00.239Z,4.86
2022-09-07T23:28:47.233Z,4.82
2022-09-07T23:31:34.309Z,4.80
2022-09-07T23:34:22.077Z,4.59
2022-09-07T23:37:09.048Z,4.69
2022-09-07T23:39:56.152Z,4.68
2022-09-07T23:42:43.184Z,4.66
2022-09-07T23:45:30.465Z,4.63
2022-09-07T23:48:17.466Z,4.61
2022-09-07T23:51:05.064Z,4.56
2022-09-07T23:53:52.129Z,4.53
2022-09-07T23:56:40.001Z,4.49
2022-09-07T23:59:27.038Z,4.35
